sensor_id;sensor_type;location;lat;lon;timestamp;P1;durP1;ratioP1;P2;durP2;ratioP2
40815;SDS011;26535;48.788;9.214;2024-02-26T00:01:41;110.38;;;56.67;;
40815;SDS011;26535;48.788;9.214;2024-02-26T00:04:08;121.32;;;57.67;;
40815;SDS011;26535;48.788;9.214;2024-02-26T00:06:34;67.35;;;29.60;;
40815;SDS011;26535;48.788;9.214;2024-02-26T00:09:01;90.13;;;40.72;;
40815;SDS011;26535;48.788;9.214;2024-02-26T00:11:27;56.97;;;25.55;;
40815;SDS011;26535;48.788;9.214;2024-02-26T00:13:53;52.25;;;22.70;;
40815;SDS011;26535;48.788;9.214;2024-02-26T06:03:51;2.85;;;2.00;;
40815;SDS011;26535;48.788;9.214;2024-02-26T06:06:16;3.03;;;1.73;;
40815;SDS011;26535;48.788;9.214;2024-02-26T06:08:43;3.78;;;1.55;;
40815;SDS011;26535;48.788;9.214;2024-02-26T06:11:11;4.43;;;1.77;;
40815;SDS011;26535;48.788;9.214;2024-02-26T06:13:40;4.10;;;1.52;;
40815;SDS011;26535;48.788;9.214;2024-02-26T06:16:08;3.78;;;1.80;;
40815;SDS011;26535;48.788;9.214;2024-02-26T06:18:34;3.63;;;1.70;;
40815;SDS011;26535;48.788;9.214;2024-02-26T06:21:00;4.47;;;1.60;;
40815;SDS011;26535;48.788;9.214;2024-02-26T06:23:25;3.20;;;1.70;;
40815;SDS011;26535;48.788;9.214;2024-02-26T06:25:57;3.63;;;2.03;;
40815;SDS011;26535;48.788;9.214;2024-02-26T06:28:23;3.90;;;2.10;;
40815;SDS011;26535;48.788;9.214;2024-02-26T06:34:36;4.22;;;2.78;;
40815;SDS011;26535;48.788;9.214;2024-02-26T06:37:12;4.85;;;2.60;;
40815;SDS011;26535;48.788;9.214;2024-02-26T06:39:38;5.25;;;2.40;;
40815;SDS011;26535;48.788;9.214;2024-02-26T06:42:06;3.80;;;2.58;;
40815;SDS011;26535;48.788;9.214;2024-02-26T06:51:46;5.05;;;3.25;;
40815;SDS011;26535;48.788;9.214;2024-02-26T06:54:11;12.68;;;7.53;;
40815;SDS011;26535;48.788;9.214;2024-02-26T06:56:40;11.48;;;6.75;;
40815;SDS011;26535;48.788;9.214;2024-02-26T07:02:54;2.58;;;1.60;;
40815;SDS011;26535;48.788;9.214;2024-02-26T07:05:22;13.05;;;7.00;;
40815;SDS011;26535;48.788;9.214;2024-02-26T07:07:48;6.40;;;3.13;;
40815;SDS011;26535;48.788;9.214;2024-02-26T07:10:13;7.82;;;3.88;;
40815;SDS011;26535;48.788;9.214;2024-02-26T07:12:48;5.65;;;3.30;;
40815;SDS011;26535;48.788;9.214;2024-02-26T07:15:14;7.55;;;4.18;;
40815;SDS011;26535;48.788;9.214;2024-02-26T07:17:40;7.90;;;4.30;;
40815;SDS011;26535;48.788;9.214;2024-02-26T07:27:55;6.18;;;2.70;;
40815;SDS011;26535;48.788;9.214;2024-02-26T07:30:20;4.53;;;2.40;;
40815;SDS011;26535;48.788;9.214;2024-02-26T07:32:46;6.15;;;2.90;;
40815;SDS011;26535;48.788;9.214;2024-02-26T07:39:09;9.48;;;3.35;;
40815;SDS011;26535;48.788;9.214;2024-02-26T07:41:34;8.80;;;3.33;;
40815;SDS011;26535;48.788;9.214;2024-02-26T07:44:04;7.35;;;2.58;;
40815;SDS011;26535;48.788;9.214;2024-02-26T07:46:29;14.30;;;4.13;;
40815;SDS011;26535;48.788;9.214;2024-02-26T07:48:55;7.97;;;3.38;;
40815;SDS011;26535;48.788;9.214;2024-02-26T07:55:08;11.55;;;4.30;;
40815;SDS011;26535;48.788;9.214;2024-02-26T07:57:42;9.00;;;3.65;;
40815;SDS011;26535;48.788;9.214;2024-02-26T08:00:09;9.43;;;3.83;;
40815;SDS011;26535;48.788;9.214;2024-02-26T08:02:35;7.03;;;3.25;;
40815;SDS011;26535;48.788;9.214;2024-02-26T08:05:07;7.50;;;3.63;;
40815;SDS011;26535;48.788;9.214;2024-02-26T08:07:33;8.13;;;3.80;;
40815;SDS011;26535;48.788;9.214;2024-02-26T08:09:58;6.35;;;3.35;;
40815;SDS011;26535;48.788;9.214;2024-02-26T08:12:24;8.80;;;3.85;;
40815;SDS011;26535;48.788;9.214;2024-02-26T08:14:50;10.88;;;3.97;;
40815;SDS011;26535;48.788;9.214;2024-02-26T08:17:16;9.60;;;3.97;;
40815;SDS011;26535;48.788;9.214;2024-02-26T08:19:42;14.00;;;3.70;;
40815;SDS011;26535;48.788;9.214;2024-02-26T08:30:25;10.50;;;3.25;;
40815;SDS011;26535;48.788;9.214;2024-02-26T08:39:32;8.90;;;4.22;;
40815;SDS011;26535;48.788;9.214;2024-02-26T08:41:57;7.63;;;2.90;;
40815;SDS011;26535;48.788;9.214;2024-02-26T08:44:29;7.03;;;2.97;;
40815;SDS011;26535;48.788;9.214;2024-02-26T08:50:33;12.60;;;3.45;;
40815;SDS011;26535;48.788;9.214;2024-02-26T08:56:08;9.57;;;3.72;;
40815;SDS011;26535;48.788;9.214;2024-02-26T08:58:34;13.80;;;3.38;;
40815;SDS011;26535;48.788;9.214;2024-02-26T09:01:01;11.98;;;3.08;;
40815;SDS011;26535;48.788;9.214;2024-02-26T09:03:32;5.78;;;2.72;;
40815;SDS011;26535;48.788;9.214;2024-02-26T09:06:01;8.93;;;3.38;;
40815;SDS011;26535;48.788;9.214;2024-02-26T09:08:32;6.25;;;3.00;;
40815;SDS011;26535;48.788;9.214;2024-02-26T09:11:04;6.88;;;2.92;;
40815;SDS011;26535;48.788;9.214;2024-02-26T09:13:39;8.13;;;2.67;;
40815;SDS011;26535;48.788;9.214;2024-02-26T09:16:05;15.05;;;3.63;;
40815;SDS011;26535;48.788;9.214;2024-02-26T09:18:33;7.90;;;3.10;;
40815;SDS011;26535;48.788;9.214;2024-02-26T09:21:20;8.57;;;3.30;;
40815;SDS011;26535;48.788;9.214;2024-02-26T09:23:52;5.88;;;2.90;;
40815;SDS011;26535;48.788;9.214;2024-02-26T09:26:17;9.57;;;3.50;;
40815;SDS011;26535;48.788;9.214;2024-02-26T09:28:45;5.90;;;2.75;;
40815;SDS011;26535;48.788;9.214;2024-02-26T09:31:14;10.48;;;2.88;;
40815;SDS011;26535;48.788;9.214;2024-02-26T09:33:43;7.97;;;3.15;;
40815;SDS011;26535;48.788;9.214;2024-02-26T09:36:09;12.10;;;4.30;;
40815;SDS011;26535;48.788;9.214;2024-02-26T09:38:36;8.23;;;3.35;;
40815;SDS011;26535;48.788;9.214;2024-02-26T09:41:03;11.43;;;3.85;;
40815;SDS011;26535;48.788;9.214;2024-02-26T09:43:36;7.70;;;3.60;;
40815;SDS011;26535;48.788;9.214;2024-02-26T09:46:08;7.70;;;3.30;;
40815;SDS011;26535;48.788;9.214;2024-02-26T09:48:33;10.00;;;2.78;;
40815;SDS011;26535;48.788;9.214;2024-02-26T09:51:03;9.13;;;3.10;;
40815;SDS011;26535;48.788;9.214;2024-02-26T09:53:33;7.68;;;3.10;;
40815;SDS011;26535;48.788;9.214;2024-02-26T09:56:01;6.68;;;3.63;;
40815;SDS011;26535;48.788;9.214;2024-02-26T09:58:28;3.63;;;2.05;;
40815;SDS011;26535;48.788;9.214;2024-02-26T10:00:58;6.30;;;3.03;;
40815;SDS011;26535;48.788;9.214;2024-02-26T10:03:31;5.22;;;2.20;;
40815;SDS011;26535;48.788;9.214;2024-02-26T10:06:01;4.65;;;2.28;;
40815;SDS011;26535;48.788;9.214;2024-02-26T10:08:31;4.68;;;2.72;;
40815;SDS011;26535;48.788;9.214;2024-02-26T10:10:57;5.45;;;2.78;;
40815;SDS011;26535;48.788;9.214;2024-02-26T10:13:23;6.50;;;3.05;;
40815;SDS011;26535;48.788;9.214;2024-02-26T10:15:50;6.93;;;2.83;;
40815;SDS011;26535;48.788;9.214;2024-02-26T10:18:16;13.45;;;5.70;;
40815;SDS011;26535;48.788;9.214;2024-02-26T10:20:42;13.60;;;6.10;;
40815;SDS011;26535;48.788;9.214;2024-02-26T10:23:27;13.55;;;5.90;;
40815;SDS011;26535;48.788;9.214;2024-02-26T10:25:56;14.15;;;5.85;;
40815;SDS011;26535;48.788;9.214;2024-02-26T10:28:22;12.10;;;5.05;;
40815;SDS011;26535;48.788;9.214;2024-02-26T10:30:48;15.10;;;6.30;;
40815;SDS011;26535;48.788;9.214;2024-02-26T10:33:14;13.18;;;5.80;;
40815;SDS011;26535;48.788;9.214;2024-02-26T10:35:47;11.00;;;5.00;;
40815;SDS011;26535;48.788;9.214;2024-02-26T10:38:13;11.18;;;4.50;;
40815;SDS011;26535;48.788;9.214;2024-02-26T10:40:42;12.95;;;4.20;;
40815;SDS011;26535;48.788;9.214;2024-02-26T10:43:08;9.07;;;4.68;;
40815;SDS011;26535;48.788;9.214;2024-02-26T10:45:34;11.63;;;5.30;;
40815;SDS011;26535;48.788;9.214;2024-02-26T10:48:01;9.07;;;4.28;;
40815;SDS011;26535;48.788;9.214;2024-02-26T10:50:27;6.22;;;2.70;;
40815;SDS011;26535;48.788;9.214;2024-02-26T10:52:54;8.48;;;3.28;;
40815;SDS011;26535;48.788;9.214;2024-02-26T10:55:20;8.52;;;3.00;;
40815;SDS011;26535;48.788;9.214;2024-02-26T10:57:49;5.85;;;2.13;;
40815;SDS011;26535;48.788;9.214;2024-02-26T11:00:17;8.68;;;2.70;;
40815;SDS011;26535;48.788;9.214;2024-02-26T11:02:44;7.60;;;3.20;;
40815;SDS011;26535;48.788;9.214;2024-02-26T11:05:13;5.40;;;2.38;;
40815;SDS011;26535;48.788;9.214;2024-02-26T11:07:41;7.10;;;2.35;;
40815;SDS011;26535;48.788;9.214;2024-02-26T11:10:07;4.50;;;2.22;;
40815;SDS011;26535;48.788;9.214;2024-02-26T11:12:36;5.22;;;2.33;;
40815;SDS011;26535;48.788;9.214;2024-02-26T11:15:04;4.57;;;2.50;;
40815;SDS011;26535;48.788;9.214;2024-02-26T11:17:30;8.05;;;2.42;;
40815;SDS011;26535;48.788;9.214;2024-02-26T11:19:59;9.00;;;2.42;;
40815;SDS011;26535;48.788;9.214;2024-02-26T11:22:27;3.78;;;2.00;;
40815;SDS011;26535;48.788;9.214;2024-02-26T11:24:56;6.85;;;2.50;;
40815;SDS011;26535;48.788;9.214;2024-02-26T11:27:24;4.28;;;2.70;;
40815;SDS011;26535;48.788;9.214;2024-02-26T11:29:55;6.65;;;2.45;;
40815;SDS011;26535;48.788;9.214;2024-02-26T11:32:23;5.80;;;2.72;;
40815;SDS011;26535;48.788;9.214;2024-02-26T11:34:49;5.28;;;2.60;;
40815;SDS011;26535;48.788;9.214;2024-02-26T11:37:15;5.80;;;2.20;;
40815;SDS011;26535;48.788;9.214;2024-02-26T11:39:42;4.72;;;2.20;;
40815;SDS011;26535;48.788;9.214;2024-02-26T11:42:10;6.90;;;2.47;;
40815;SDS011;26535;48.788;9.214;2024-02-26T11:44:39;5.32;;;2.47;;
40815;SDS011;26535;48.788;9.214;2024-02-26T11:47:13;4.13;;;1.95;;
40815;SDS011;26535;48.788;9.214;2024-02-26T11:49:43;7.75;;;2.17;;
40815;SDS011;26535;48.788;9.214;2024-02-26T11:52:09;5.15;;;2.30;;
40815;SDS011;26535;48.788;9.214;2024-02-26T11:54:46;7.10;;;2.35;;
40815;SDS011;26535;48.788;9.214;2024-02-26T11:59:49;4.35;;;2.05;;
40815;SDS011;26535;48.788;9.214;2024-02-26T12:05:17;4.93;;;2.33;;
40815;SDS011;26535;48.788;9.214;2024-02-26T12:07:48;4.82;;;2.15;;
40815;SDS011;26535;48.788;9.214;2024-02-26T12:10:24;6.20;;;2.15;;
40815;SDS011;26535;48.788;9.214;2024-02-26T12:13:00;5.35;;;2.20;;
40815;SDS011;26535;48.788;9.214;2024-02-26T12:15:32;6.78;;;2.38;;
40815;SDS011;26535;48.788;9.214;2024-02-26T12:18:02;6.25;;;2.50;;
40815;SDS011;26535;48.788;9.214;2024-02-26T12:20:30;5.28;;;1.90;;
40815;SDS011;26535;48.788;9.214;2024-02-26T12:23:02;5.30;;;2.17;;
40815;SDS011;26535;48.788;9.214;2024-02-26T12:25:34;5.03;;;2.30;;
40815;SDS011;26535;48.788;9.214;2024-02-26T12:28:00;4.82;;;2.08;;
40815;SDS011;26535;48.788;9.214;2024-02-26T12:30:26;6.70;;;1.67;;
40815;SDS011;26535;48.788;9.214;2024-02-26T12:32:59;5.47;;;2.20;;
40815;SDS011;26535;48.788;9.214;2024-02-26T12:35:26;5.28;;;2.00;;
40815;SDS011;26535;48.788;9.214;2024-02-26T12:37:53;5.05;;;2.20;;
40815;SDS011;26535;48.788;9.214;2024-02-26T12:40:19;4.78;;;2.10;;
40815;SDS011;26535;48.788;9.214;2024-02-26T12:42:46;4.82;;;2.20;;
40815;SDS011;26535;48.788;9.214;2024-02-26T12:45:12;4.72;;;1.90;;
40815;SDS011;26535;48.788;9.214;2024-02-26T12:47:39;6.38;;;1.98;;
40815;SDS011;26535;48.788;9.214;2024-02-26T12:50:06;6.10;;;2.00;;
40815;SDS011;26535;48.788;9.214;2024-02-26T12:52:33;3.72;;;1.63;;
40815;SDS011;26535;48.788;9.214;2024-02-26T12:55:28;3.25;;;1.50;;
40815;SDS011;26535;48.788;9.214;2024-02-26T12:57:55;2.95;;;1.40;;
40815;SDS011;26535;48.788;9.214;2024-02-26T13:00:22;4.47;;;1.70;;
40815;SDS011;26535;48.788;9.214;2024-02-26T13:02:52;4.28;;;1.30;;
40815;SDS011;26535;48.788;9.214;2024-02-26T13:05:20;5.70;;;1.60;;
40815;SDS011;26535;48.788;9.214;2024-02-26T13:07:48;2.40;;;1.10;;
40815;SDS011;26535;48.788;9.214;2024-02-26T13:10:13;2.38;;;1.00;;
40815;SDS011;26535;48.788;9.214;2024-02-26T13:12:46;1.73;;;0.55;;
40815;SDS011;26535;48.788;9.214;2024-02-26T13:15:19;1.98;;;0.50;;
40815;SDS011;26535;48.788;9.214;2024-02-26T13:17:46;1.70;;;0.70;;
40815;SDS011;26535;48.788;9.214;2024-02-26T13:20:13;2.03;;;0.70;;
40815;SDS011;26535;48.788;9.214;2024-02-26T13:22:50;1.70;;;0.60;;
40815;SDS011;26535;48.788;9.214;2024-02-26T13:25:20;1.65;;;0.63;;
40815;SDS011;26535;48.788;9.214;2024-02-26T13:27:46;4.53;;;1.13;;
40815;SDS011;26535;48.788;9.214;2024-02-26T13:30:12;3.00;;;0.60;;
40815;SDS011;26535;48.788;9.214;2024-02-26T13:32:39;2.63;;;0.93;;
40815;SDS011;26535;48.788;9.214;2024-02-26T13:35:10;4.43;;;0.80;;
40815;SDS011;26535;48.788;9.214;2024-02-26T13:37:38;3.00;;;0.50;;
40815;SDS011;26535;48.788;9.214;2024-02-26T13:40:08;2.30;;;0.50;;
40815;SDS011;26535;48.788;9.214;2024-02-26T13:42:36;1.65;;;0.40;;
40815;SDS011;26535;48.788;9.214;2024-02-26T13:45:04;1.77;;;0.57;;
40815;SDS011;26535;48.788;9.214;2024-02-26T13:47:32;1.75;;;0.50;;
40815;SDS011;26535;48.788;9.214;2024-02-26T13:50:03;2.33;;;0.77;;
40815;SDS011;26535;48.788;9.214;2024-02-26T13:52:30;3.17;;;1.05;;
40815;SDS011;26535;48.788;9.214;2024-02-26T13:54:57;1.83;;;0.60;;
40815;SDS011;26535;48.788;9.214;2024-02-26T13:57:24;2.22;;;0.73;;
40815;SDS011;26535;48.788;9.214;2024-02-26T13:59:50;6.20;;;0.82;;
40815;SDS011;26535;48.788;9.214;2024-02-26T14:02:16;2.40;;;0.95;;
40815;SDS011;26535;48.788;9.214;2024-02-26T14:04:42;2.55;;;0.85;;
40815;SDS011;26535;48.788;9.214;2024-02-26T14:07:10;2.67;;;0.70;;
40815;SDS011;26535;48.788;9.214;2024-02-26T14:09:44;2.38;;;0.68;;
40815;SDS011;26535;48.788;9.214;2024-02-26T14:12:11;1.40;;;0.73;;
40815;SDS011;26535;48.788;9.214;2024-02-26T14:14:39;2.85;;;0.50;;
40815;SDS011;26535;48.788;9.214;2024-02-26T14:17:10;1.67;;;0.60;;
40815;SDS011;26535;48.788;9.214;2024-02-26T14:19:37;1.88;;;0.63;;
40815;SDS011;26535;48.788;9.214;2024-02-26T14:22:05;1.08;;;0.30;;
40815;SDS011;26535;48.788;9.214;2024-02-26T14:24:31;1.85;;;0.40;;
40815;SDS011;26535;48.788;9.214;2024-02-26T14:29:35;1.88;;;0.43;;
40815;SDS011;26535;48.788;9.214;2024-02-26T14:32:04;1.23;;;0.32;;
40815;SDS011;26535;48.788;9.214;2024-02-26T14:34:43;2.85;;;0.40;;
40815;SDS011;26535;48.788;9.214;2024-02-26T14:40:40;1.10;;;0.30;;
40815;SDS011;26535;48.788;9.214;2024-02-26T14:43:06;1.73;;;0.50;;
40815;SDS011;26535;48.788;9.214;2024-02-26T14:45:35;1.65;;;0.60;;
40815;SDS011;26535;48.788;9.214;2024-02-26T14:48:00;2.42;;;0.50;;
40815;SDS011;26535;48.788;9.214;2024-02-26T14:50:26;2.60;;;0.40;;
40815;SDS011;26535;48.788;9.214;2024-02-26T14:52:51;2.10;;;0.30;;
40815;SDS011;26535;48.788;9.214;2024-02-26T14:55:17;1.08;;;0.30;;
40815;SDS011;26535;48.788;9.214;2024-02-26T14:57:43;1.92;;;0.50;;
40815;SDS011;26535;48.788;9.214;2024-02-26T15:00:09;1.90;;;0.50;;
40815;SDS011;26535;48.788;9.214;2024-02-26T15:02:35;4.10;;;0.60;;
40815;SDS011;26535;48.788;9.214;2024-02-26T15:05:01;3.38;;;0.63;;
40815;SDS011;26535;48.788;9.214;2024-02-26T15:07:26;3.88;;;0.90;;
40815;SDS011;26535;48.788;9.214;2024-02-26T15:09:52;2.45;;;0.90;;
40815;SDS011;26535;48.788;9.214;2024-02-26T15:12:22;2.25;;;0.55;;
40815;SDS011;26535;48.788;9.214;2024-02-26T15:14:48;2.65;;;0.65;;
40815;SDS011;26535;48.788;9.214;2024-02-26T15:17:14;2.40;;;0.60;;
40815;SDS011;26535;48.788;9.214;2024-02-26T15:19:40;1.77;;;0.70;;
40815;SDS011;26535;48.788;9.214;2024-02-26T15:22:05;1.35;;;0.50;;
40815;SDS011;26535;48.788;9.214;2024-02-26T15:24:31;2.00;;;0.70;;
40815;SDS011;26535;48.788;9.214;2024-02-26T15:26:57;1.42;;;0.70;;
40815;SDS011;26535;48.788;9.214;2024-02-26T15:29:23;3.42;;;0.63;;
40815;SDS011;26535;48.788;9.214;2024-02-26T15:31:48;1.65;;;0.60;;
40815;SDS011;26535;48.788;9.214;2024-02-26T15:34:14;1.83;;;0.60;;
40815;SDS011;26535;48.788;9.214;2024-02-26T15:36:40;2.63;;;0.90;;
40815;SDS011;26535;48.788;9.214;2024-02-26T15:39:07;2.83;;;0.98;;
40815;SDS011;26535;48.788;9.214;2024-02-26T15:41:33;3.53;;;0.80;;
40815;SDS011;26535;48.788;9.214;2024-02-26T15:43:58;2.65;;;0.80;;
40815;SDS011;26535;48.788;9.214;2024-02-26T15:46:25;2.10;;;0.90;;
40815;SDS011;26535;48.788;9.214;2024-02-26T15:48:52;2.05;;;0.73;;
40815;SDS011;26535;48.788;9.214;2024-02-26T15:51:21;2.17;;;0.90;;
40815;SDS011;26535;48.788;9.214;2024-02-26T15:53:49;4.13;;;0.80;;
40815;SDS011;26535;48.788;9.214;2024-02-26T15:56:15;2.67;;;1.00;;
40815;SDS011;26535;48.788;9.214;2024-02-26T15:58:42;3.90;;;1.10;;
40815;SDS011;26535;48.788;9.214;2024-02-26T16:01:08;2.75;;;1.17;;
40815;SDS011;26535;48.788;9.214;2024-02-26T16:03:37;3.75;;;1.30;;
40815;SDS011;26535;48.788;9.214;2024-02-26T16:06:04;4.72;;;1.02;;
40815;SDS011;26535;48.788;9.214;2024-02-26T16:08:31;2.08;;;0.90;;
40815;SDS011;26535;48.788;9.214;2024-02-26T16:10:57;4.53;;;1.20;;
40815;SDS011;26535;48.788;9.214;2024-02-26T16:13:23;4.47;;;1.00;;
40815;SDS011;26535;48.788;9.214;2024-02-26T16:15:50;3.70;;;1.10;;
40815;SDS011;26535;48.788;9.214;2024-02-26T16:18:21;2.72;;;1.20;;
40815;SDS011;26535;48.788;9.214;2024-02-26T16:20:47;3.85;;;1.20;;
40815;SDS011;26535;48.788;9.214;2024-02-26T16:23:13;3.85;;;1.35;;
40815;SDS011;26535;48.788;9.214;2024-02-26T16:25:38;2.88;;;1.10;;
40815;SDS011;26535;48.788;9.214;2024-02-26T16:28:04;2.72;;;1.35;;
40815;SDS011;26535;48.788;9.214;2024-02-26T16:30:30;6.13;;;1.58;;
40815;SDS011;26535;48.788;9.214;2024-02-26T16:32:57;3.50;;;1.27;;
40815;SDS011;26535;48.788;9.214;2024-02-26T16:35:23;4.05;;;1.15;;
40815;SDS011;26535;48.788;9.214;2024-02-26T16:37:49;2.72;;;1.15;;
40815;SDS011;26535;48.788;9.214;2024-02-26T16:40:15;5.35;;;1.40;;
40815;SDS011;26535;48.788;9.214;2024-02-26T16:42:44;2.28;;;0.90;;
40815;SDS011;26535;48.788;9.214;2024-02-26T16:45:10;3.85;;;1.30;;
40815;SDS011;26535;48.788;9.214;2024-02-26T16:47:37;3.38;;;1.33;;
40815;SDS011;26535;48.788;9.214;2024-02-26T16:50:03;5.50;;;1.35;;
40815;SDS011;26535;48.788;9.214;2024-02-26T16:52:31;4.40;;;1.60;;
40815;SDS011;26535;48.788;9.214;2024-02-26T16:54:57;3.65;;;1.27;;
40815;SDS011;26535;48.788;9.214;2024-02-26T16:57:24;3.20;;;1.13;;
40815;SDS011;26535;48.788;9.214;2024-02-26T16:59:50;3.75;;;1.60;;
40815;SDS011;26535;48.788;9.214;2024-02-26T17:02:15;3.17;;;1.65;;
40815;SDS011;26535;48.788;9.214;2024-02-26T17:04:41;3.55;;;1.20;;
40815;SDS011;26535;48.788;9.214;2024-02-26T17:07:07;3.22;;;1.30;;
40815;SDS011;26535;48.788;9.214;2024-02-26T17:09:32;2.70;;;1.50;;
40815;SDS011;26535;48.788;9.214;2024-02-26T17:11:59;2.60;;;1.05;;
40815;SDS011;26535;48.788;9.214;2024-02-26T17:14:24;2.95;;;1.15;;
40815;SDS011;26535;48.788;9.214;2024-02-26T17:16:50;2.45;;;1.20;;
40815;SDS011;26535;48.788;9.214;2024-02-26T17:19:16;2.60;;;1.20;;
40815;SDS011;26535;48.788;9.214;2024-02-26T17:21:42;3.38;;;1.40;;
40815;SDS011;26535;48.788;9.214;2024-02-26T17:24:08;3.47;;;1.50;;
40815;SDS011;26535;48.788;9.214;2024-02-26T17:26:34;3.95;;;1.27;;
40815;SDS011;26535;48.788;9.214;2024-02-26T17:29:01;3.25;;;1.75;;
40815;SDS011;26535;48.788;9.214;2024-02-26T17:31:27;3.40;;;1.33;;
40815;SDS011;26535;48.788;9.214;2024-02-26T17:33:54;2.60;;;1.20;;
40815;SDS011;26535;48.788;9.214;2024-02-26T17:36:20;3.00;;;1.25;;
40815;SDS011;26535;48.788;9.214;2024-02-26T17:38:46;3.67;;;1.45;;
40815;SDS011;26535;48.788;9.214;2024-02-26T17:41:13;3.40;;;1.45;;
40815;SDS011;26535;48.788;9.214;2024-02-26T17:43:39;2.60;;;1.45;;
40815;SDS011;26535;48.788;9.214;2024-02-26T17:46:06;3.63;;;1.48;;
40815;SDS011;26535;48.788;9.214;2024-02-26T17:48:46;4.13;;;1.70;;
40815;SDS011;26535;48.788;9.214;2024-02-26T17:51:40;2.88;;;1.58;;
40815;SDS011;26535;48.788;9.214;2024-02-26T17:54:06;4.25;;;1.75;;
40815;SDS011;26535;48.788;9.214;2024-02-26T17:56:35;3.78;;;1.48;;
40815;SDS011;26535;48.788;9.214;2024-02-26T17:59:01;4.82;;;1.90;;
40815;SDS011;26535;48.788;9.214;2024-02-26T18:01:26;4.47;;;1.88;;
40815;SDS011;26535;48.788;9.214;2024-02-26T18:03:52;3.75;;;1.88;;
40815;SDS011;26535;48.788;9.214;2024-02-26T18:06:19;3.53;;;1.65;;
40815;SDS011;26535;48.788;9.214;2024-02-26T18:08:44;5.30;;;2.08;;
40815;SDS011;26535;48.788;9.214;2024-02-26T18:11:10;7.32;;;2.20;;
40815;SDS011;26535;48.788;9.214;2024-02-26T18:13:37;4.60;;;2.20;;
40815;SDS011;26535;48.788;9.214;2024-02-26T18:16:07;5.97;;;2.28;;
40815;SDS011;26535;48.788;9.214;2024-02-26T18:18:33;4.80;;;1.98;;
40815;SDS011;26535;48.788;9.214;2024-02-26T18:20:59;9.38;;;2.28;;
40815;SDS011;26535;48.788;9.214;2024-02-26T18:23:24;5.28;;;2.00;;
40815;SDS011;26535;48.788;9.214;2024-02-26T18:25:50;4.75;;;2.17;;
40815;SDS011;26535;48.788;9.214;2024-02-26T18:28:16;6.13;;;2.70;;
40815;SDS011;26535;48.788;9.214;2024-02-26T18:30:43;4.90;;;2.00;;
40815;SDS011;26535;48.788;9.214;2024-02-26T18:33:11;4.50;;;2.25;;
40815;SDS011;26535;48.788;9.214;2024-02-26T18:35:37;4.78;;;1.92;;
40815;SDS011;26535;48.788;9.214;2024-02-26T18:38:03;4.82;;;2.08;;
40815;SDS011;26535;48.788;9.214;2024-02-26T18:40:29;6.50;;;2.42;;
40815;SDS011;26535;48.788;9.214;2024-02-26T18:42:55;5.18;;;2.30;;
40815;SDS011;26535;48.788;9.214;2024-02-26T18:45:21;5.18;;;2.38;;
40815;SDS011;26535;48.788;9.214;2024-02-26T18:47:46;3.88;;;2.15;;
40815;SDS011;26535;48.788;9.214;2024-02-26T18:50:15;4.50;;;2.17;;
40815;SDS011;26535;48.788;9.214;2024-02-26T18:55:06;6.10;;;2.70;;
40815;SDS011;26535;48.788;9.214;2024-02-26T18:57:32;4.78;;;2.65;;
40815;SDS011;26535;48.788;9.214;2024-02-26T18:59:59;5.15;;;2.40;;
40815;SDS011;26535;48.788;9.214;2024-02-26T19:02:24;6.07;;;2.58;;
40815;SDS011;26535;48.788;9.214;2024-02-26T19:04:53;4.70;;;2.50;;
40815;SDS011;26535;48.788;9.214;2024-02-26T19:07:19;5.55;;;2.53;;
40815;SDS011;26535;48.788;9.214;2024-02-26T19:09:45;6.30;;;2.72;;
40815;SDS011;26535;48.788;9.214;2024-02-26T19:12:10;7.80;;;2.63;;
40815;SDS011;26535;48.788;9.214;2024-02-26T19:14:37;4.88;;;2.42;;
40815;SDS011;26535;48.788;9.214;2024-02-26T19:17:04;5.43;;;2.53;;
40815;SDS011;26535;48.788;9.214;2024-02-26T19:19:29;4.88;;;2.38;;
40815;SDS011;26535;48.788;9.214;2024-02-26T19:21:55;4.20;;;2.33;;
40815;SDS011;26535;48.788;9.214;2024-02-26T19:24:23;7.60;;;2.67;;
40815;SDS011;26535;48.788;9.214;2024-02-26T19:26:49;7.45;;;3.15;;
40815;SDS011;26535;48.788;9.214;2024-02-26T19:29:14;6.60;;;2.40;;
40815;SDS011;26535;48.788;9.214;2024-02-26T19:31:40;6.57;;;2.40;;
40815;SDS011;26535;48.788;9.214;2024-02-26T19:34:05;4.65;;;2.72;;
40815;SDS011;26535;48.788;9.214;2024-02-26T19:36:31;5.22;;;2.67;;
40815;SDS011;26535;48.788;9.214;2024-02-26T19:38:57;3.92;;;2.40;;
40815;SDS011;26535;48.788;9.214;2024-02-26T19:41:23;5.82;;;2.50;;
40815;SDS011;26535;48.788;9.214;2024-02-26T19:43:48;5.30;;;2.88;;
40815;SDS011;26535;48.788;9.214;2024-02-26T19:46:14;5.45;;;2.55;;
40815;SDS011;26535;48.788;9.214;2024-02-26T19:48:40;5.10;;;2.35;;
40815;SDS011;26535;48.788;9.214;2024-02-26T19:51:06;4.57;;;2.40;;
40815;SDS011;26535;48.788;9.214;2024-02-26T19:53:32;6.43;;;2.75;;
40815;SDS011;26535;48.788;9.214;2024-02-26T19:55:58;4.40;;;2.17;;
40815;SDS011;26535;48.788;9.214;2024-02-26T19:58:25;4.17;;;2.10;;
40815;SDS011;26535;48.788;9.214;2024-02-26T20:00:51;5.55;;;2.63;;
40815;SDS011;26535;48.788;9.214;2024-02-26T20:03:17;5.13;;;2.65;;
40815;SDS011;26535;48.788;9.214;2024-02-26T20:05:43;5.38;;;2.95;;
40815;SDS011;26535;48.788;9.214;2024-02-26T20:08:09;6.53;;;3.17;;
40815;SDS011;26535;48.788;9.214;2024-02-26T20:10:35;4.75;;;2.40;;
40815;SDS011;26535;48.788;9.214;2024-02-26T20:13:01;5.80;;;2.70;;
40815;SDS011;26535;48.788;9.214;2024-02-26T20:15:26;6.85;;;2.97;;
40815;SDS011;26535;48.788;9.214;2024-02-26T20:17:52;5.18;;;2.90;;
40815;SDS011;26535;48.788;9.214;2024-02-26T20:20:18;8.05;;;3.10;;
40815;SDS011;26535;48.788;9.214;2024-02-26T20:22:44;5.93;;;2.65;;
40815;SDS011;26535;48.788;9.214;2024-02-26T20:25:11;6.88;;;2.97;;
40815;SDS011;26535;48.788;9.214;2024-02-26T20:27:38;5.30;;;2.97;;
40815;SDS011;26535;48.788;9.214;2024-02-26T20:30:03;6.07;;;2.97;;
40815;SDS011;26535;48.788;9.214;2024-02-26T20:32:30;5.10;;;2.75;;
40815;SDS011;26535;48.788;9.214;2024-02-26T20:34:59;5.40;;;2.40;;
40815;SDS011;26535;48.788;9.214;2024-02-26T20:37:24;5.97;;;2.97;;
40815;SDS011;26535;48.788;9.214;2024-02-26T20:39:50;5.38;;;2.67;;
40815;SDS011;26535;48.788;9.214;2024-02-26T20:42:16;4.65;;;2.45;;
40815;SDS011;26535;48.788;9.214;2024-02-26T20:44:41;5.20;;;3.20;;
40815;SDS011;26535;48.788;9.214;2024-02-26T20:47:07;5.80;;;3.00;;
40815;SDS011;26535;48.788;9.214;2024-02-26T20:49:33;5.68;;;3.03;;
40815;SDS011;26535;48.788;9.214;2024-02-26T20:51:59;5.10;;;3.25;;
40815;SDS011;26535;48.788;9.214;2024-02-26T20:54:25;5.55;;;3.33;;
40815;SDS011;26535;48.788;9.214;2024-02-26T20:56:50;6.18;;;3.33;;
40815;SDS011;26535;48.788;9.214;2024-02-26T20:59:16;6.63;;;3.25;;
40815;SDS011;26535;48.788;9.214;2024-02-26T21:01:43;6.57;;;3.15;;
40815;SDS011;26535;48.788;9.214;2024-02-26T21:04:09;5.55;;;2.72;;
40815;SDS011;26535;48.788;9.214;2024-02-26T21:06:35;5.18;;;2.80;;
40815;SDS011;26535;48.788;9.214;2024-02-26T21:11:36;4.88;;;2.50;;
40815;SDS011;26535;48.788;9.214;2024-02-26T21:14:02;4.95;;;2.70;;
40815;SDS011;26535;48.788;9.214;2024-02-26T21:16:28;4.10;;;2.22;;
40815;SDS011;26535;48.788;9.214;2024-02-26T21:18:57;5.95;;;2.45;;
40815;SDS011;26535;48.788;9.214;2024-02-26T21:21:24;4.40;;;2.20;;
40815;SDS011;26535;48.788;9.214;2024-02-26T21:23:58;3.70;;;1.83;;
40815;SDS011;26535;48.788;9.214;2024-02-26T21:26:32;4.30;;;1.85;;
40815;SDS011;26535;48.788;9.214;2024-02-26T21:29:07;3.92;;;2.17;;
40815;SDS011;26535;48.788;9.214;2024-02-26T21:34:30;4.18;;;1.67;;
40815;SDS011;26535;48.788;9.214;2024-02-26T21:36:56;3.83;;;1.60;;
40815;SDS011;26535;48.788;9.214;2024-02-26T21:39:22;3.92;;;1.63;;
40815;SDS011;26535;48.788;9.214;2024-02-26T21:41:47;5.63;;;1.60;;
40815;SDS011;26535;48.788;9.214;2024-02-26T21:44:17;3.25;;;1.10;;
40815;SDS011;26535;48.788;9.214;2024-02-26T21:46:48;2.83;;;1.00;;